sensor_id;sensor_type;location;lat;lon;timestamp;temperature;humidity
53272;DHT22;39160;48.580;7.756;2022-07-29T00:03:34;25.60;57.00
53272;DHT22;39160;48.580;7.756;2022-07-29T00:08:25;25.50;57.40
53272;DHT22;39160;48.580;7.756;2022-07-29T00:13:16;25.40;57.50
53272;DHT22;39160;48.580;7.756;2022-07-29T00:18:07;25.40;57.80
53272;DHT22;39160;48.580;7.756;2022-07-29T00:22:57;25.30;57.80
53272;DHT22;39160;48.580;7.756;2022-07-29T00:27:48;25.30;58.00
53272;DHT22;39160;48.580;7.756;2022-07-29T00:32:39;25.50;57.80
53272;DHT22;39160;48.580;7.756;2022-07-29T00:37:29;25.40;58.00
53272;DHT22;39160;48.580;7.756;2022-07-29T00:42:20;25.30;58.10
53272;DHT22;39160;48.580;7.756;2022-07-29T00:47:12;25.30;58.20
53272;DHT22;39160;48.580;7.756;2022-07-29T00:52:04;25.20;58.40
53272;DHT22;39160;48.580;7.756;2022-07-29T00:56:57;25.20;58.40
53272;DHT22;39160;48.580;7.756;2022-07-29T01:01:48;25.10;58.40
53272;DHT22;39160;48.580;7.756;2022-07-29T01:06:39;25.00;58.60
53272;DHT22;39160;48.580;7.756;2022-07-29T01:11:30;24.70;59.10
53272;DHT22;39160;48.580;7.756;2022-07-29T01:22:00;24.80;59.60
53272;DHT22;39160;48.580;7.756;2022-07-29T01:32:33;24.60;60.20
53272;DHT22;39160;48.580;7.756;2022-07-29T01:42:34;24.30;60.70
53272;DHT22;39160;48.580;7.756;2022-07-29T01:47:31;24.30;61.20
53272;DHT22;39160;48.580;7.756;2022-07-29T01:52:31;24.20;61.70
53272;DHT22;39160;48.580;7.756;2022-07-29T01:57:27;24.00;62.20
53272;DHT22;39160;48.580;7.756;2022-07-29T02:02:19;23.90;62.60
53272;DHT22;39160;48.580;7.756;2022-07-29T02:07:19;23.90;62.90
53272;DHT22;39160;48.580;7.756;2022-07-29T02:12:11;23.80;63.30
53272;DHT22;39160;48.580;7.756;2022-07-29T02:17:03;23.90;63.50
53272;DHT22;39160;48.580;7.756;2022-07-29T02:21:56;23.80;63.90
53272;DHT22;39160;48.580;7.756;2022-07-29T02:26:49;23.80;64.10
53272;DHT22;39160;48.580;7.756;2022-07-29T02:31:41;23.80;64.80
53272;DHT22;39160;48.580;7.756;2022-07-29T02:36:35;23.70;65.00
53272;DHT22;39160;48.580;7.756;2022-07-29T02:41:40;23.60;65.70
53272;DHT22;39160;48.580;7.756;2022-07-29T02:46:33;23.50;66.40
53272;DHT22;39160;48.580;7.756;2022-07-29T02:51:53;23.40;66.90
53272;DHT22;39160;48.580;7.756;2022-07-29T02:56:45;23.50;67.40
53272;DHT22;39160;48.580;7.756;2022-07-29T03:01:41;23.50;67.30
53272;DHT22;39160;48.580;7.756;2022-07-29T03:06:34;23.50;67.60
53272;DHT22;39160;48.580;7.756;2022-07-29T03:11:26;23.50;67.60
53272;DHT22;39160;48.580;7.756;2022-07-29T03:16:19;23.50;67.90
53272;DHT22;39160;48.580;7.756;2022-07-29T03:21:10;23.40;68.20
53272;DHT22;39160;48.580;7.756;2022-07-29T03:26:01;23.40;68.20
53272;DHT22;39160;48.580;7.756;2022-07-29T03:30:51;23.30;68.80
53272;DHT22;39160;48.580;7.756;2022-07-29T03:35:42;23.20;69.30
53272;DHT22;39160;48.580;7.756;2022-07-29T03:40:46;23.20;69.60
53272;DHT22;39160;48.580;7.756;2022-07-29T03:45:39;23.20;70.00
53272;DHT22;39160;48.580;7.756;2022-07-29T03:50:33;23.30;70.00
53272;DHT22;39160;48.580;7.756;2022-07-29T03:55:25;23.30;70.30
53272;DHT22;39160;48.580;7.756;2022-07-29T04:00:17;23.20;70.60
53272;DHT22;39160;48.580;7.756;2022-07-29T04:05:12;23.30;70.90
53272;DHT22;39160;48.580;7.756;2022-07-29T04:10:03;23.30;71.20
53272;DHT22;39160;48.580;7.756;2022-07-29T04:14:54;23.20;71.60
53272;DHT22;39160;48.580;7.756;2022-07-29T04:19:44;23.20;71.90
53272;DHT22;39160;48.580;7.756;2022-07-29T04:24:35;23.00;72.30
53272;DHT22;39160;48.580;7.756;2022-07-29T04:29:27;22.90;72.70
53272;DHT22;39160;48.580;7.756;2022-07-29T04:34:18;22.90;72.50
53272;DHT22;39160;48.580;7.756;2022-07-29T04:39:08;23.00;72.30
53272;DHT22;39160;48.580;7.756;2022-07-29T04:44:00;23.00;72.30
53272;DHT22;39160;48.580;7.756;2022-07-29T04:48:55;23.00;72.50
53272;DHT22;39160;48.580;7.756;2022-07-29T04:53:45;23.00;72.50
53272;DHT22;39160;48.580;7.756;2022-07-29T04:58:36;23.00;72.70
53272;DHT22;39160;48.580;7.756;2022-07-29T05:03:27;23.10;72.80
53272;DHT22;39160;48.580;7.756;2022-07-29T05:08:18;23.20;72.60
53272;DHT22;39160;48.580;7.756;2022-07-29T05:13:08;23.40;72.40
53272;DHT22;39160;48.580;7.756;2022-07-29T05:18:00;23.50;72.00
53272;DHT22;39160;48.580;7.756;2022-07-29T05:22:50;23.60;71.80
53272;DHT22;39160;48.580;7.756;2022-07-29T05:27:41;23.80;71.70
53272;DHT22;39160;48.580;7.756;2022-07-29T05:32:32;24.00;71.40
53272;DHT22;39160;48.580;7.756;2022-07-29T05:37:22;24.00;71.20
53272;DHT22;39160;48.580;7.756;2022-07-29T05:42:13;24.10;70.90
53272;DHT22;39160;48.580;7.756;2022-07-29T05:47:04;24.30;70.20
53272;DHT22;39160;48.580;7.756;2022-07-29T05:51:54;24.50;69.60
53272;DHT22;39160;48.580;7.756;2022-07-29T05:56:45;24.60;69.30
53272;DHT22;39160;48.580;7.756;2022-07-29T06:01:36;24.90;68.40
53272;DHT22;39160;48.580;7.756;2022-07-29T06:06:29;25.00;68.00
53272;DHT22;39160;48.580;7.756;2022-07-29T06:11:20;25.10;67.40
53272;DHT22;39160;48.580;7.756;2022-07-29T06:16:10;25.10;67.30
53272;DHT22;39160;48.580;7.756;2022-07-29T06:21:01;25.20;66.70
53272;DHT22;39160;48.580;7.756;2022-07-29T06:25:57;25.20;66.30
53272;DHT22;39160;48.580;7.756;2022-07-29T06:30:47;25.20;66.40
53272;DHT22;39160;48.580;7.756;2022-07-29T06:35:38;25.30;66.20
53272;DHT22;39160;48.580;7.756;2022-07-29T06:40:29;25.40;66.20
53272;DHT22;39160;48.580;7.756;2022-07-29T06:45:39;25.20;66.40
53272;DHT22;39160;48.580;7.756;2022-07-29T06:50:31;25.30;66.30
53272;DHT22;39160;48.580;7.756;2022-07-29T06:55:22;25.50;65.90
53272;DHT22;39160;48.580;7.756;2022-07-29T07:00:13;25.60;65.90
53272;DHT22;39160;48.580;7.756;2022-07-29T07:05:07;25.70;65.60
53272;DHT22;39160;48.580;7.756;2022-07-29T07:09:58;25.40;65.60
53272;DHT22;39160;48.580;7.756;2022-07-29T07:14:48;25.20;65.70
53272;DHT22;39160;48.580;7.756;2022-07-29T07:19:39;25.00;66.00
53272;DHT22;39160;48.580;7.756;2022-07-29T07:24:29;25.00;65.90
53272;DHT22;39160;48.580;7.756;2022-07-29T07:29:20;25.30;65.90
53272;DHT22;39160;48.580;7.756;2022-07-29T07:34:14;25.60;65.60
53272;DHT22;39160;48.580;7.756;2022-07-29T07:39:05;25.40;65.80
53272;DHT22;39160;48.580;7.756;2022-07-29T07:43:56;25.80;65.70
53272;DHT22;39160;48.580;7.756;2022-07-29T07:48:46;25.80;65.50
53272;DHT22;39160;48.580;7.756;2022-07-29T07:53:37;25.80;65.40
53272;DHT22;39160;48.580;7.756;2022-07-29T07:58:28;25.90;65.30
53272;DHT22;39160;48.580;7.756;2022-07-29T08:03:18;26.00;65.30
53272;DHT22;39160;48.580;7.756;2022-07-29T08:08:09;26.00;65.20
53272;DHT22;39160;48.580;7.756;2022-07-29T08:13:04;25.90;65.20
53272;DHT22;39160;48.580;7.756;2022-07-29T08:17:55;25.80;65.30
53272;DHT22;39160;48.580;7.756;2022-07-29T08:22:46;25.90;65.20
53272;DHT22;39160;48.580;7.756;2022-07-29T08:27:36;26.00;64.90
53272;DHT22;39160;48.580;7.756;2022-07-29T08:32:27;26.10;64.60
53272;DHT22;39160;48.580;7.756;2022-07-29T08:37:22;26.10;64.60
53272;DHT22;39160;48.580;7.756;2022-07-29T08:42:16;26.10;64.40
53272;DHT22;39160;48.580;7.756;2022-07-29T08:47:07;26.20;64.00
53272;DHT22;39160;48.580;7.756;2022-07-29T08:51:58;26.60;63.20
53272;DHT22;39160;48.580;7.756;2022-07-29T08:56:53;26.80;62.40
53272;DHT22;39160;48.580;7.756;2022-07-29T09:01:48;26.60;62.30
53272;DHT22;39160;48.580;7.756;2022-07-29T09:06:44;26.60;62.10
53272;DHT22;39160;48.580;7.756;2022-07-29T09:11:36;26.60;61.80
53272;DHT22;39160;48.580;7.756;2022-07-29T09:16:44;26.60;61.40
53272;DHT22;39160;48.580;7.756;2022-07-29T09:21:41;26.90;60.50
53272;DHT22;39160;48.580;7.756;2022-07-29T09:27:02;27.00;60.50
53272;DHT22;39160;48.580;7.756;2022-07-29T09:31:57;27.20;60.10
53272;DHT22;39160;48.580;7.756;2022-07-29T09:36:50;27.40;59.80
53272;DHT22;39160;48.580;7.756;2022-07-29T09:41:48;27.30;59.70
53272;DHT22;39160;48.580;7.756;2022-07-29T09:46:40;27.20;59.50
53272;DHT22;39160;48.580;7.756;2022-07-29T09:51:36;27.30;59.40
53272;DHT22;39160;48.580;7.756;2022-07-29T09:56:43;27.70;58.90
53272;DHT22;39160;48.580;7.756;2022-07-29T10:01:34;28.10;58.40
53272;DHT22;39160;48.580;7.756;2022-07-29T10:06:26;28.30;58.30
53272;DHT22;39160;48.580;7.756;2022-07-29T10:11:18;28.10;58.20
53272;DHT22;39160;48.580;7.756;2022-07-29T10:16:10;28.30;57.90
53272;DHT22;39160;48.580;7.756;2022-07-29T10:21:01;28.30;57.60
53272;DHT22;39160;48.580;7.756;2022-07-29T10:25:56;28.60;57.00
53272;DHT22;39160;48.580;7.756;2022-07-29T10:30:49;28.80;56.10
53272;DHT22;39160;48.580;7.756;2022-07-29T10:41:12;29.50;54.70
53272;DHT22;39160;48.580;7.756;2022-07-29T10:46:22;29.60;54.10
53272;DHT22;39160;48.580;7.756;2022-07-29T10:51:14;29.70;54.40
53272;DHT22;39160;48.580;7.756;2022-07-29T10:56:26;29.60;54.00
53272;DHT22;39160;48.580;7.756;2022-07-29T11:01:30;29.50;53.10
53272;DHT22;39160;48.580;7.756;2022-07-29T11:06:21;29.50;53.30
53272;DHT22;39160;48.580;7.756;2022-07-29T11:16:15;29.50;52.90
53272;DHT22;39160;48.580;7.756;2022-07-29T11:21:35;29.40;53.50
53272;DHT22;39160;48.580;7.756;2022-07-29T11:26:27;29.50;52.30
53272;DHT22;39160;48.580;7.756;2022-07-29T11:31:40;29.40;52.60
53272;DHT22;39160;48.580;7.756;2022-07-29T11:36:32;29.70;52.00
53272;DHT22;39160;48.580;7.756;2022-07-29T11:41:23;29.60;52.30
53272;DHT22;39160;48.580;7.756;2022-07-29T11:46:15;29.50;52.20
53272;DHT22;39160;48.580;7.756;2022-07-29T11:51:09;29.40;52.10
53272;DHT22;39160;48.580;7.756;2022-07-29T11:56:01;29.10;52.30
53272;DHT22;39160;48.580;7.756;2022-07-29T12:00:54;29.10;52.20
53272;DHT22;39160;48.580;7.756;2022-07-29T12:05:45;29.20;52.10
53272;DHT22;39160;48.580;7.756;2022-07-29T12:10:36;29.20;52.20
53272;DHT22;39160;48.580;7.756;2022-07-29T12:15:27;29.40;52.30
53272;DHT22;39160;48.580;7.756;2022-07-29T12:20:29;29.50;52.40
53272;DHT22;39160;48.580;7.756;2022-07-29T12:25:32;29.50;52.50
53272;DHT22;39160;48.580;7.756;2022-07-29T12:30:23;29.50;52.90
53272;DHT22;39160;48.580;7.756;2022-07-29T12:35:24;29.50;53.10
53272;DHT22;39160;48.580;7.756;2022-07-29T12:40:16;29.90;53.10
53272;DHT22;39160;48.580;7.756;2022-07-29T12:45:07;30.20;53.20
53272;DHT22;39160;48.580;7.756;2022-07-29T12:50:12;30.40;53.30
53272;DHT22;39160;48.580;7.756;2022-07-29T12:55:05;30.60;53.40
53272;DHT22;39160;48.580;7.756;2022-07-29T13:00:06;30.40;53.70
53272;DHT22;39160;48.580;7.756;2022-07-29T13:04:59;30.40;53.70
53272;DHT22;39160;48.580;7.756;2022-07-29T13:09:51;30.20;53.50
53272;DHT22;39160;48.580;7.756;2022-07-29T13:14:47;30.30;54.30
53272;DHT22;39160;48.580;7.756;2022-07-29T13:24:33;31.10;53.00
53272;DHT22;39160;48.580;7.756;2022-07-29T13:29:24;30.90;52.80
53272;DHT22;39160;48.580;7.756;2022-07-29T13:34:16;31.00;52.70
53272;DHT22;39160;48.580;7.756;2022-07-29T13:39:09;31.30;52.40
53272;DHT22;39160;48.580;7.756;2022-07-29T13:44:01;31.70;51.80
53272;DHT22;39160;48.580;7.756;2022-07-29T13:48:52;31.80;51.40
53272;DHT22;39160;48.580;7.756;2022-07-29T13:53:42;32.40;51.30
53272;DHT22;39160;48.580;7.756;2022-07-29T13:58:34;32.20;50.90
53272;DHT22;39160;48.580;7.756;2022-07-29T14:03:25;31.80;51.10
53272;DHT22;39160;48.580;7.756;2022-07-29T14:08:16;31.90;51.00
53272;DHT22;39160;48.580;7.756;2022-07-29T14:13:07;31.90;50.40
53272;DHT22;39160;48.580;7.756;2022-07-29T14:17:57;32.60;49.90
53272;DHT22;39160;48.580;7.756;2022-07-29T14:22:48;33.30;49.00
53272;DHT22;39160;48.580;7.756;2022-07-29T14:27:39;33.90;47.80
53272;DHT22;39160;48.580;7.756;2022-07-29T14:32:29;33.60;47.60
53272;DHT22;39160;48.580;7.756;2022-07-29T14:37:20;33.00;47.40
53272;DHT22;39160;48.580;7.756;2022-07-29T14:42:11;32.80;47.40
53272;DHT22;39160;48.580;7.756;2022-07-29T14:47:01;33.30;46.90
53272;DHT22;39160;48.580;7.756;2022-07-29T14:51:52;34.00;46.10
53272;DHT22;39160;48.580;7.756;2022-07-29T14:56:43;33.50;46.50
53272;DHT22;39160;48.580;7.756;2022-07-29T15:01:34;33.50;45.30
53272;DHT22;39160;48.580;7.756;2022-07-29T15:06:25;33.40;45.80
53272;DHT22;39160;48.580;7.756;2022-07-29T15:11:15;32.90;45.10
53272;DHT22;39160;48.580;7.756;2022-07-29T15:16:06;32.50;45.50
53272;DHT22;39160;48.580;7.756;2022-07-29T15:20:57;33.10;45.40
53272;DHT22;39160;48.580;7.756;2022-07-29T15:25:47;33.10;45.60
53272;DHT22;39160;48.580;7.756;2022-07-29T15:30:38;33.40;46.00
53272;DHT22;39160;48.580;7.756;2022-07-29T15:35:32;34.80;45.40
53272;DHT22;39160;48.580;7.756;2022-07-29T15:40:25;35.60;45.60
53272;DHT22;39160;48.580;7.756;2022-07-29T15:45:16;36.60;44.80
53272;DHT22;39160;48.580;7.756;2022-07-29T15:50:07;36.70;44.50
53272;DHT22;39160;48.580;7.756;2022-07-29T15:55:02;37.80;43.80
53272;DHT22;39160;48.580;7.756;2022-07-29T15:59:53;37.20;43.70
53272;DHT22;39160;48.580;7.756;2022-07-29T16:04:44;37.90;43.20
53272;DHT22;39160;48.580;7.756;2022-07-29T16:09:34;39.30;41.90
53272;DHT22;39160;48.580;7.756;2022-07-29T16:14:25;40.50;40.90
53272;DHT22;39160;48.580;7.756;2022-07-29T16:19:15;37.80;42.50
53272;DHT22;39160;48.580;7.756;2022-07-29T16:24:06;35.90;44.10
53272;DHT22;39160;48.580;7.756;2022-07-29T16:28:57;37.60;43.00
53272;DHT22;39160;48.580;7.756;2022-07-29T16:33:49;39.30;41.30
53272;DHT22;39160;48.580;7.756;2022-07-29T16:38:39;37.10;42.20
53272;DHT22;39160;48.580;7.756;2022-07-29T16:43:31;34.70;43.80
53272;DHT22;39160;48.580;7.756;2022-07-29T16:48:21;33.40;44.60
53272;DHT22;39160;48.580;7.756;2022-07-29T16:53:12;32.30;45.40
53272;DHT22;39160;48.580;7.756;2022-07-29T16:58:03;32.30;45.20
53272;DHT22;39160;48.580;7.756;2022-07-29T17:02:53;32.30;45.20
53272;DHT22;39160;48.580;7.756;2022-07-29T17:07:44;32.50;45.10
53272;DHT22;39160;48.580;7.756;2022-07-29T17:12:36;32.40;45.30
53272;DHT22;39160;48.580;7.756;2022-07-29T17:17:27;34.50;44.10
53272;DHT22;39160;48.580;7.756;2022-07-29T17:22:18;37.90;41.70
53272;DHT22;39160;48.580;7.756;2022-07-29T17:27:09;39.20;40.60
53272;DHT22;39160;48.580;7.756;2022-07-29T17:32:00;39.60;40.60
53272;DHT22;39160;48.580;7.756;2022-07-29T17:36:50;36.90;42.80
53272;DHT22;39160;48.580;7.756;2022-07-29T17:41:41;34.60;44.60
53272;DHT22;39160;48.580;7.756;2022-07-29T17:46:34;32.70;45.90
53272;DHT22;39160;48.580;7.756;2022-07-29T17:51:25;31.60;47.40
53272;DHT22;39160;48.580;7.756;2022-07-29T17:56:16;31.00;47.30
53272;DHT22;39160;48.580;7.756;2022-07-29T18:01:07;30.90;47.30
53272;DHT22;39160;48.580;7.756;2022-07-29T18:05:58;30.80;47.50
53272;DHT22;39160;48.580;7.756;2022-07-29T18:10:50;30.50;47.80
53272;DHT22;39160;48.580;7.756;2022-07-29T18:15:41;30.30;47.90
53272;DHT22;39160;48.580;7.756;2022-07-29T18:20:32;30.10;48.10
53272;DHT22;39160;48.580;7.756;2022-07-29T18:25:23;29.80;48.30
53272;DHT22;39160;48.580;7.756;2022-07-29T18:30:15;29.70;48.40
53272;DHT22;39160;48.580;7.756;2022-07-29T18:35:06;29.40;48.60
53272;DHT22;39160;48.580;7.756;2022-07-29T18:39:57;29.20;48.80
53272;DHT22;39160;48.580;7.756;2022-07-29T18:44:47;29.00;49.10
53272;DHT22;39160;48.580;7.756;2022-07-29T18:49:39;28.80;49.40
53272;DHT22;39160;48.580;7.756;2022-07-29T18:54:30;28.70;49.40
53272;DHT22;39160;48.580;7.756;2022-07-29T18:59:20;28.70;49.50
53272;DHT22;39160;48.580;7.756;2022-07-29T19:04:11;28.70;49.40
53272;DHT22;39160;48.580;7.756;2022-07-29T19:09:02;28.50;49.70
53272;DHT22;39160;48.580;7.756;2022-07-29T19:13:53;28.30;49.90
53272;DHT22;39160;48.580;7.756;2022-07-29T19:18:44;28.30;50.20
53272;DHT22;39160;48.580;7.756;2022-07-29T19:23:36;28.10;50.20
53272;DHT22;39160;48.580;7.756;2022-07-29T19:28:27;28.10;50.30
53272;DHT22;39160;48.580;7.756;2022-07-29T19:33:18;28.20;50.30
53272;DHT22;39160;48.580;7.756;2022-07-29T19:38:09;28.20;50.40
53272;DHT22;39160;48.580;7.756;2022-07-29T19:43:00;28.00;50.60
53272;DHT22;39160;48.580;7.756;2022-07-29T19:47:51;28.10;50.50
53272;DHT22;39160;48.580;7.756;2022-07-29T19:52:43;27.90;50.70
53272;DHT22;39160;48.580;7.756;2022-07-29T19:57:36;27.90;50.90
53272;DHT22;39160;48.580;7.756;2022-07-29T20:02:27;27.90;50.90
53272;DHT22;39160;48.580;7.756;2022-07-29T20:07:17;27.80;51.10
53272;DHT22;39160;48.580;7.756;2022-07-29T20:12:09;27.80;51.40
53272;DHT22;39160;48.580;7.756;2022-07-29T20:17:00;27.80;51.70
53272;DHT22;39160;48.580;7.756;2022-07-29T20:21:52;27.70;51.90
53272;DHT22;39160;48.580;7.756;2022-07-29T20:26:44;27.60;52.00
53272;DHT22;39160;48.580;7.756;2022-07-29T20:31:34;27.50;52.30
53272;DHT22;39160;48.580;7.756;2022-07-29T20:36:35;27.60;52.50
53272;DHT22;39160;48.580;7.756;2022-07-29T20:41:25;27.30;52.80
53272;DHT22;39160;48.580;7.756;2022-07-29T20:46:18;27.20;53.00
53272;DHT22;39160;48.580;7.756;2022-07-29T20:51:09;27.10;53.20
53272;DHT22;39160;48.580;7.756;2022-07-29T20:55:59;27.00;53.30
53272;DHT22;39160;48.580;7.756;2022-07-29T21:00:50;26.80;53.60
53272;DHT22;39160;48.580;7.756;2022-07-29T21:05:41;26.70;53.90
53272;DHT22;39160;48.580;7.756;2022-07-29T21:10:33;26.80;54.00
53272;DHT22;39160;48.580;7.756;2022-07-29T21:15:23;26.80;54.10
53272;DHT22;39160;48.580;7.756;2022-07-29T21:20:17;26.70;54.10
53272;DHT22;39160;48.580;7.756;2022-07-29T21:25:09;26.90;54.10
53272;DHT22;39160;48.580;7.756;2022-07-29T21:30:00;26.90;53.80
53272;DHT22;39160;48.580;7.756;2022-07-29T21:34:51;26.90;53.80
53272;DHT22;39160;48.580;7.756;2022-07-29T21:39:43;26.80;53.80
53272;DHT22;39160;48.580;7.756;2022-07-29T21:44:34;26.90;53.40
53272;DHT22;39160;48.580;7.756;2022-07-29T21:49:27;26.90;53.40
53272;DHT22;39160;48.580;7.756;2022-07-29T21:54:18;26.90;53.20
53272;DHT22;39160;48.580;7.756;2022-07-29T21:59:09;26.80;53.40
53272;DHT22;39160;48.580;7.756;2022-07-29T22:03:59;26.70;53.40
53272;DHT22;39160;48.580;7.756;2022-07-29T22:08:50;26.50;53.50
53272;DHT22;39160;48.580;7.756;2022-07-29T22:13:41;26.70;53.40
53272;DHT22;39160;48.580;7.756;2022-07-29T22:18:32;26.60;53.40
53272;DHT22;39160;48.580;7.756;2022-07-29T22:23:22;26.60;53.50
53272;DHT22;39160;48.580;7.756;2022-07-29T22:28:13;26.50;53.70
53272;DHT22;39160;48.580;7.756;2022-07-29T22:33:04;26.10;54.30
53272;DHT22;39160;48.580;7.756;2022-07-29T22:37:54;26.10;54.50
53272;DHT22;39160;48.580;7.756;2022-07-29T22:42:45;26.10;54.60
53272;DHT22;39160;48.580;7.756;2022-07-29T22:47:36;25.90;54.90
53272;DHT22;39160;48.580;7.756;2022-07-29T22:52:27;25.80;55.10
53272;DHT22;39160;48.580;7.756;2022-07-29T22:57:18;25.70;55.40
53272;DHT22;39160;48.580;7.756;2022-07-29T23:02:08;25.80;55.60
53272;DHT22;39160;48.580;7.756;2022-07-29T23:06:59;25.90;55.40
53272;DHT22;39160;48.580;7.756;2022-07-29T23:11:50;25.80;55.90
53272;DHT22;39160;48.580;7.756;2022-07-29T23:16:41;25.60;56.10
53272;DHT22;39160;48.580;7.756;2022-07-29T23:21:31;25.40;56.60
53272;DHT22;39160;48.580;7.756;2022-07-29T23:26:22;25.50;56.50
53272;DHT22;39160;48.580;7.756;2022-07-29T23:31:13;25.40;56.90
53272;DHT22;39160;48.580;7.756;2022-07-29T23:36:03;25.40;57.10
53272;DHT22;39160;48.580;7.756;2022-07-29T23:40:54;25.30;57.20
53272;DHT22;39160;48.580;7.756;2022-07-29T23:45:45;25.40;57.30
53272;DHT22;39160;48.580;7.756;2022-07-29T23:50:35;25.10;57.80
53272;DHT22;39160;48.580;7.756;2022-07-29T23:55:26;25.10;57.90
